sensor_id;sensor_type;location;lat;lon;timestamp;temperature;humidity
21559;DHT22;10940;48.890;8.240;2023-12-14T00:01:50;7.70;99.90
21559;DHT22;10940;48.890;8.240;2023-12-14T00:04:16;7.70;99.90
21559;DHT22;10940;48.890;8.240;2023-12-14T00:06:41;7.70;99.90
21559;DHT22;10940;48.890;8.240;2023-12-14T00:09:07;7.70;99.90
21559;DHT22;10940;48.890;8.240;2023-12-14T00:11:40;7.60;99.90
21559;DHT22;10940;48.890;8.240;2023-12-14T00:14:06;7.60;99.90
21559;DHT22;10940;48.890;8.240;2023-12-14T00:16:31;7.60;99.90
21559;DHT22;10940;48.890;8.240;2023-12-14T00:18:58;7.60;99.90
21559;DHT22;10940;48.890;8.240;2023-12-14T00:21:23;7.60;99.90
21559;DHT22;10940;48.890;8.240;2023-12-14T00:23:49;7.60;99.90
21559;DHT22;10940;48.890;8.240;2023-12-14T00:26:14;7.70;99.90
21559;DHT22;10940;48.890;8.240;2023-12-14T00:28:40;7.70;99.90
21559;DHT22;10940;48.890;8.240;2023-12-14T00:31:06;7.70;99.90
21559;DHT22;10940;48.890;8.240;2023-12-14T00:33:31;7.70;99.90
21559;DHT22;10940;48.890;8.240;2023-12-14T00:35:57;7.70;99.90
21559;DHT22;10940;48.890;8.240;2023-12-14T00:38:23;7.80;99.90
21559;DHT22;10940;48.890;8.240;2023-12-14T00:40:48;7.80;99.90
21559;DHT22;10940;48.890;8.240;2023-12-14T00:43:14;7.80;99.90
21559;DHT22;10940;48.890;8.240;2023-12-14T00:45:40;7.80;99.90
21559;DHT22;10940;48.890;8.240;2023-12-14T00:48:06;7.80;99.90
21559;DHT22;10940;48.890;8.240;2023-12-14T00:50:32;7.80;99.90
21559;DHT22;10940;48.890;8.240;2023-12-14T00:52:58;7.80;99.90
21559;DHT22;10940;48.890;8.240;2023-12-14T00:55:24;7.80;99.90
21559;DHT22;10940;48.890;8.240;2023-12-14T00:57:49;7.80;99.90
21559;DHT22;10940;48.890;8.240;2023-12-14T01:00:15;7.80;99.90
21559;DHT22;10940;48.890;8.240;2023-12-14T01:02:41;7.80;99.90
21559;DHT22;10940;48.890;8.240;2023-12-14T01:05:07;7.80;99.90
21559;DHT22;10940;48.890;8.240;2023-12-14T01:07:32;7.90;99.90
21559;DHT22;10940;48.890;8.240;2023-12-14T01:09:58;7.80;99.90
21559;DHT22;10940;48.890;8.240;2023-12-14T01:12:23;7.90;99.90
21559;DHT22;10940;48.890;8.240;2023-12-14T01:14:49;7.90;99.90
21559;DHT22;10940;48.890;8.240;2023-12-14T01:17:14;7.90;99.90
21559;DHT22;10940;48.890;8.240;2023-12-14T01:19:40;7.90;99.90
21559;DHT22;10940;48.890;8.240;2023-12-14T01:22:06;7.90;99.90
21559;DHT22;10940;48.890;8.240;2023-12-14T01:24:32;7.90;99.90
21559;DHT22;10940;48.890;8.240;2023-12-14T01:26:58;7.90;99.90
21559;DHT22;10940;48.890;8.240;2023-12-14T01:29:23;7.90;99.90
21559;DHT22;10940;48.890;8.240;2023-12-14T01:31:49;7.90;99.90
21559;DHT22;10940;48.890;8.240;2023-12-14T01:34:14;7.90;99.90
21559;DHT22;10940;48.890;8.240;2023-12-14T01:36:41;7.90;99.90
21559;DHT22;10940;48.890;8.240;2023-12-14T01:39:07;7.90;99.90
21559;DHT22;10940;48.890;8.240;2023-12-14T01:41:33;7.90;99.90
21559;DHT22;10940;48.890;8.240;2023-12-14T01:43:58;7.90;99.90
21559;DHT22;10940;48.890;8.240;2023-12-14T01:46:24;7.90;99.90
21559;DHT22;10940;48.890;8.240;2023-12-14T01:48:49;7.90;99.90
21559;DHT22;10940;48.890;8.240;2023-12-14T01:51:17;7.90;99.90
21559;DHT22;10940;48.890;8.240;2023-12-14T01:53:43;7.90;99.90
21559;DHT22;10940;48.890;8.240;2023-12-14T01:56:09;7.90;99.90
21559;DHT22;10940;48.890;8.240;2023-12-14T01:58:34;7.90;99.90
21559;DHT22;10940;48.890;8.240;2023-12-14T02:01:20;7.90;99.90
21559;DHT22;10940;48.890;8.240;2023-12-14T02:03:50;7.90;99.90
21559;DHT22;10940;48.890;8.240;2023-12-14T02:06:16;7.90;99.90
21559;DHT22;10940;48.890;8.240;2023-12-14T02:08:41;7.90;99.90
21559;DHT22;10940;48.890;8.240;2023-12-14T02:11:07;7.90;99.90
21559;DHT22;10940;48.890;8.240;2023-12-14T02:13:33;7.90;99.90
21559;DHT22;10940;48.890;8.240;2023-12-14T02:15:58;7.90;99.90
21559;DHT22;10940;48.890;8.240;2023-12-14T02:18:24;7.90;99.90
21559;DHT22;10940;48.890;8.240;2023-12-14T02:20:49;7.90;99.90
21559;DHT22;10940;48.890;8.240;2023-12-14T02:23:15;7.90;99.90
21559;DHT22;10940;48.890;8.240;2023-12-14T02:25:40;7.90;99.90
21559;DHT22;10940;48.890;8.240;2023-12-14T02:28:06;7.90;99.90
21559;DHT22;10940;48.890;8.240;2023-12-14T02:30:31;7.90;99.90
21559;DHT22;10940;48.890;8.240;2023-12-14T02:32:57;7.90;99.90
21559;DHT22;10940;48.890;8.240;2023-12-14T02:35:23;7.90;99.90
21559;DHT22;10940;48.890;8.240;2023-12-14T02:37:48;7.90;99.90
21559;DHT22;10940;48.890;8.240;2023-12-14T02:40:14;7.80;99.90
21559;DHT22;10940;48.890;8.240;2023-12-14T02:42:39;7.90;99.90
21559;DHT22;10940;48.890;8.240;2023-12-14T02:45:06;7.90;99.90
21559;DHT22;10940;48.890;8.240;2023-12-14T02:47:32;7.90;99.90
21559;DHT22;10940;48.890;8.240;2023-12-14T02:49:57;7.90;99.90
21559;DHT22;10940;48.890;8.240;2023-12-14T02:52:23;7.80;99.90
21559;DHT22;10940;48.890;8.240;2023-12-14T02:54:48;7.90;99.90
21559;DHT22;10940;48.890;8.240;2023-12-14T02:57:14;7.90;99.90
21559;DHT22;10940;48.890;8.240;2023-12-14T02:59:40;7.90;99.90
21559;DHT22;10940;48.890;8.240;2023-12-14T03:02:06;7.90;99.90
21559;DHT22;10940;48.890;8.240;2023-12-14T03:04:31;7.90;99.90
21559;DHT22;10940;48.890;8.240;2023-12-14T03:06:57;7.90;99.90
21559;DHT22;10940;48.890;8.240;2023-12-14T03:09:30;7.90;99.90
21559;DHT22;10940;48.890;8.240;2023-12-14T03:11:56;7.90;99.90
21559;DHT22;10940;48.890;8.240;2023-12-14T03:14:22;7.90;99.90
21559;DHT22;10940;48.890;8.240;2023-12-14T03:16:47;7.90;99.90
21559;DHT22;10940;48.890;8.240;2023-12-14T03:19:15;7.90;99.90
21559;DHT22;10940;48.890;8.240;2023-12-14T03:21:41;7.90;99.90
21559;DHT22;10940;48.890;8.240;2023-12-14T03:24:07;7.90;99.90
21559;DHT22;10940;48.890;8.240;2023-12-14T03:26:32;7.90;99.90
21559;DHT22;10940;48.890;8.240;2023-12-14T03:28:58;7.90;99.90
21559;DHT22;10940;48.890;8.240;2023-12-14T03:31:24;7.90;99.90
21559;DHT22;10940;48.890;8.240;2023-12-14T03:33:49;7.90;99.90
21559;DHT22;10940;48.890;8.240;2023-12-14T03:36:15;7.90;99.90
21559;DHT22;10940;48.890;8.240;2023-12-14T03:38:40;7.90;99.90
21559;DHT22;10940;48.890;8.240;2023-12-14T03:41:06;7.90;99.90
21559;DHT22;10940;48.890;8.240;2023-12-14T03:43:31;7.90;99.90
21559;DHT22;10940;48.890;8.240;2023-12-14T03:45:57;7.90;99.90
21559;DHT22;10940;48.890;8.240;2023-12-14T03:48:23;7.90;99.90
21559;DHT22;10940;48.890;8.240;2023-12-14T03:50:48;7.90;99.90
21559;DHT22;10940;48.890;8.240;2023-12-14T03:53:14;8.00;99.90
21559;DHT22;10940;48.890;8.240;2023-12-14T03:55:39;8.00;99.90
21559;DHT22;10940;48.890;8.240;2023-12-14T03:58:05;8.00;99.90
21559;DHT22;10940;48.890;8.240;2023-12-14T04:00:31;7.90;99.90
21559;DHT22;10940;48.890;8.240;2023-12-14T04:02:56;7.90;99.90
21559;DHT22;10940;48.890;8.240;2023-12-14T04:05:22;8.00;99.90
21559;DHT22;10940;48.890;8.240;2023-12-14T04:07:47;8.00;99.90
21559;DHT22;10940;48.890;8.240;2023-12-14T04:10:13;8.00;99.90
21559;DHT22;10940;48.890;8.240;2023-12-14T04:12:39;8.00;99.90
21559;DHT22;10940;48.890;8.240;2023-12-14T04:15:07;8.00;99.90
21559;DHT22;10940;48.890;8.240;2023-12-14T04:17:33;8.00;99.90
21559;DHT22;10940;48.890;8.240;2023-12-14T04:19:59;8.00;99.90
21559;DHT22;10940;48.890;8.240;2023-12-14T04:22:25;8.00;99.90
21559;DHT22;10940;48.890;8.240;2023-12-14T04:24:51;8.00;99.90
21559;DHT22;10940;48.890;8.240;2023-12-14T04:27:16;7.90;99.90
21559;DHT22;10940;48.890;8.240;2023-12-14T04:29:42;7.90;99.90
21559;DHT22;10940;48.890;8.240;2023-12-14T04:32:08;7.90;99.90
21559;DHT22;10940;48.890;8.240;2023-12-14T04:34:33;7.90;99.90
21559;DHT22;10940;48.890;8.240;2023-12-14T04:36:59;7.90;99.90
21559;DHT22;10940;48.890;8.240;2023-12-14T04:39:25;7.90;99.90
21559;DHT22;10940;48.890;8.240;2023-12-14T04:41:51;7.90;99.90
21559;DHT22;10940;48.890;8.240;2023-12-14T04:44:20;7.90;99.90
21559;DHT22;10940;48.890;8.240;2023-12-14T04:46:49;7.90;99.90
21559;DHT22;10940;48.890;8.240;2023-12-14T04:49:16;7.90;99.90
21559;DHT22;10940;48.890;8.240;2023-12-14T04:51:42;7.90;99.90
21559;DHT22;10940;48.890;8.240;2023-12-14T04:54:08;7.90;99.90
21559;DHT22;10940;48.890;8.240;2023-12-14T04:56:34;7.90;99.90
21559;DHT22;10940;48.890;8.240;2023-12-14T04:59:00;7.80;99.90
21559;DHT22;10940;48.890;8.240;2023-12-14T05:01:25;7.80;99.90
21559;DHT22;10940;48.890;8.240;2023-12-14T05:03:54;7.80;99.90
21559;DHT22;10940;48.890;8.240;2023-12-14T05:06:20;7.90;99.90
21559;DHT22;10940;48.890;8.240;2023-12-14T05:08:46;7.90;99.90
21559;DHT22;10940;48.890;8.240;2023-12-14T05:11:13;7.90;99.90
21559;DHT22;10940;48.890;8.240;2023-12-14T05:13:39;7.90;99.90
21559;DHT22;10940;48.890;8.240;2023-12-14T05:16:05;7.90;99.90
21559;DHT22;10940;48.890;8.240;2023-12-14T05:18:30;7.90;99.90
21559;DHT22;10940;48.890;8.240;2023-12-14T05:20:56;7.90;99.90
21559;DHT22;10940;48.890;8.240;2023-12-14T05:23:22;7.90;99.90
21559;DHT22;10940;48.890;8.240;2023-12-14T05:25:47;7.90;99.90
21559;DHT22;10940;48.890;8.240;2023-12-14T05:28:13;7.90;99.90
21559;DHT22;10940;48.890;8.240;2023-12-14T05:30:38;7.90;99.90
21559;DHT22;10940;48.890;8.240;2023-12-14T05:33:04;7.90;99.90
21559;DHT22;10940;48.890;8.240;2023-12-14T05:35:30;7.90;99.90
21559;DHT22;10940;48.890;8.240;2023-12-14T05:37:56;7.90;99.90
21559;DHT22;10940;48.890;8.240;2023-12-14T05:40:21;7.90;99.90
21559;DHT22;10940;48.890;8.240;2023-12-14T05:45:22;7.90;99.90
21559;DHT22;10940;48.890;8.240;2023-12-14T05:47:48;7.90;99.90
21559;DHT22;10940;48.890;8.240;2023-12-14T05:50:13;7.90;99.90
21559;DHT22;10940;48.890;8.240;2023-12-14T05:52:39;7.90;99.90
21559;DHT22;10940;48.890;8.240;2023-12-14T05:55:09;7.90;99.90
21559;DHT22;10940;48.890;8.240;2023-12-14T05:57:36;7.90;99.90
21559;DHT22;10940;48.890;8.240;2023-12-14T06:00:02;7.80;99.90
21559;DHT22;10940;48.890;8.240;2023-12-14T06:02:29;7.80;99.90
21559;DHT22;10940;48.890;8.240;2023-12-14T06:04:55;7.80;99.90
21559;DHT22;10940;48.890;8.240;2023-12-14T06:07:23;7.80;99.90
21559;DHT22;10940;48.890;8.240;2023-12-14T06:09:49;7.80;99.90
21559;DHT22;10940;48.890;8.240;2023-12-14T06:12:14;7.90;99.90
21559;DHT22;10940;48.890;8.240;2023-12-14T06:14:40;7.90;99.90
21559;DHT22;10940;48.890;8.240;2023-12-14T06:17:05;7.90;99.90
21559;DHT22;10940;48.890;8.240;2023-12-14T06:19:31;7.90;99.90
21559;DHT22;10940;48.890;8.240;2023-12-14T06:21:57;7.80;99.90
21559;DHT22;10940;48.890;8.240;2023-12-14T06:24:23;7.90;99.90
21559;DHT22;10940;48.890;8.240;2023-12-14T06:26:49;7.80;99.90
21559;DHT22;10940;48.890;8.240;2023-12-14T06:29:14;7.90;99.90
21559;DHT22;10940;48.890;8.240;2023-12-14T06:31:40;7.80;99.90
21559;DHT22;10940;48.890;8.240;2023-12-14T06:34:06;7.80;99.90
21559;DHT22;10940;48.890;8.240;2023-12-14T06:36:32;7.80;99.90
21559;DHT22;10940;48.890;8.240;2023-12-14T06:38:59;7.80;99.90
21559;DHT22;10940;48.890;8.240;2023-12-14T06:41:26;7.80;99.90
21559;DHT22;10940;48.890;8.240;2023-12-14T06:43:52;7.80;99.90
21559;DHT22;10940;48.890;8.240;2023-12-14T06:46:18;7.80;99.90
21559;DHT22;10940;48.890;8.240;2023-12-14T06:48:45;7.80;99.90
21559;DHT22;10940;48.890;8.240;2023-12-14T06:51:11;7.80;99.90
21559;DHT22;10940;48.890;8.240;2023-12-14T06:53:40;7.80;99.90
21559;DHT22;10940;48.890;8.240;2023-12-14T06:56:07;7.80;99.90
21559;DHT22;10940;48.890;8.240;2023-12-14T06:58:39;7.80;99.90
21559;DHT22;10940;48.890;8.240;2023-12-14T07:01:05;7.70;99.90
21559;DHT22;10940;48.890;8.240;2023-12-14T07:03:31;7.80;99.90
21559;DHT22;10940;48.890;8.240;2023-12-14T07:05:57;7.80;99.90
21559;DHT22;10940;48.890;8.240;2023-12-14T07:08:23;7.80;99.90
21559;DHT22;10940;48.890;8.240;2023-12-14T07:10:49;7.80;99.90
21559;DHT22;10940;48.890;8.240;2023-12-14T07:13:14;7.80;99.90
21559;DHT22;10940;48.890;8.240;2023-12-14T07:15:40;7.80;99.90
21559;DHT22;10940;48.890;8.240;2023-12-14T07:18:05;7.80;99.90
21559;DHT22;10940;48.890;8.240;2023-12-14T07:20:31;7.80;99.90
21559;DHT22;10940;48.890;8.240;2023-12-14T07:22:56;7.80;99.90
21559;DHT22;10940;48.890;8.240;2023-12-14T07:25:22;7.80;99.90
21559;DHT22;10940;48.890;8.240;2023-12-14T07:27:47;7.80;99.90
21559;DHT22;10940;48.890;8.240;2023-12-14T07:30:13;7.80;99.90
21559;DHT22;10940;48.890;8.240;2023-12-14T07:32:39;7.80;99.90
21559;DHT22;10940;48.890;8.240;2023-12-14T07:35:05;7.80;99.90
21559;DHT22;10940;48.890;8.240;2023-12-14T07:37:31;7.80;99.90
21559;DHT22;10940;48.890;8.240;2023-12-14T07:39:57;7.90;99.90
21559;DHT22;10940;48.890;8.240;2023-12-14T07:42:23;7.90;99.90
21559;DHT22;10940;48.890;8.240;2023-12-14T07:44:49;7.90;99.90
21559;DHT22;10940;48.890;8.240;2023-12-14T07:47:15;7.90;99.90
21559;DHT22;10940;48.890;8.240;2023-12-14T07:49:40;7.90;99.90
21559;DHT22;10940;48.890;8.240;2023-12-14T07:52:06;7.90;99.90
21559;DHT22;10940;48.890;8.240;2023-12-14T07:54:32;7.90;99.90
21559;DHT22;10940;48.890;8.240;2023-12-14T07:56:58;7.90;99.90
21559;DHT22;10940;48.890;8.240;2023-12-14T07:59:24;7.90;99.90
21559;DHT22;10940;48.890;8.240;2023-12-14T08:01:49;7.80;99.90
21559;DHT22;10940;48.890;8.240;2023-12-14T08:04:15;7.90;99.90
21559;DHT22;10940;48.890;8.240;2023-12-14T08:06:40;7.90;99.90
21559;DHT22;10940;48.890;8.240;2023-12-14T08:09:06;7.80;99.90
21559;DHT22;10940;48.890;8.240;2023-12-14T08:11:33;7.90;99.90
21559;DHT22;10940;48.890;8.240;2023-12-14T08:13:59;7.90;99.90
21559;DHT22;10940;48.890;8.240;2023-12-14T08:16:24;7.90;99.90
21559;DHT22;10940;48.890;8.240;2023-12-14T08:18:50;7.90;99.90
21559;DHT22;10940;48.890;8.240;2023-12-14T08:21:17;7.90;99.90
21559;DHT22;10940;48.890;8.240;2023-12-14T08:23:43;7.90;99.90
21559;DHT22;10940;48.890;8.240;2023-12-14T08:26:09;7.90;99.90
21559;DHT22;10940;48.890;8.240;2023-12-14T08:28:36;7.90;99.90
21559;DHT22;10940;48.890;8.240;2023-12-14T08:31:02;7.90;99.90
21559;DHT22;10940;48.890;8.240;2023-12-14T08:33:30;7.90;99.90
21559;DHT22;10940;48.890;8.240;2023-12-14T08:35:56;8.00;99.90
21559;DHT22;10940;48.890;8.240;2023-12-14T08:38:21;8.00;99.90
21559;DHT22;10940;48.890;8.240;2023-12-14T08:40:47;8.00;99.90
21559;DHT22;10940;48.890;8.240;2023-12-14T08:43:13;8.10;99.90
21559;DHT22;10940;48.890;8.240;2023-12-14T08:45:39;8.10;99.90
21559;DHT22;10940;48.890;8.240;2023-12-14T08:48:05;8.20;99.90
21559;DHT22;10940;48.890;8.240;2023-12-14T08:50:30;8.20;99.90
21559;DHT22;10940;48.890;8.240;2023-12-14T08:52:56;8.20;99.90
21559;DHT22;10940;48.890;8.240;2023-12-14T08:55:24;8.20;99.90
21559;DHT22;10940;48.890;8.240;2023-12-14T08:57:50;8.20;99.90
21559;DHT22;10940;48.890;8.240;2023-12-14T09:00:16;8.20;99.90
21559;DHT22;10940;48.890;8.240;2023-12-14T09:02:44;8.30;99.90
21559;DHT22;10940;48.890;8.240;2023-12-14T09:05:12;8.30;99.90
21559;DHT22;10940;48.890;8.240;2023-12-14T09:07:38;8.30;99.90
21559;DHT22;10940;48.890;8.240;2023-12-14T09:10:04;8.40;99.90
21559;DHT22;10940;48.890;8.240;2023-12-14T09:12:30;8.40;99.90
21559;DHT22;10940;48.890;8.240;2023-12-14T09:14:55;8.40;99.90
21559;DHT22;10940;48.890;8.240;2023-12-14T09:17:21;8.40;99.90
21559;DHT22;10940;48.890;8.240;2023-12-14T09:19:47;8.50;99.90
21559;DHT22;10940;48.890;8.240;2023-12-14T09:22:12;8.50;99.90
21559;DHT22;10940;48.890;8.240;2023-12-14T09:24:38;8.50;99.90
21559;DHT22;10940;48.890;8.240;2023-12-14T09:27:04;8.60;99.90
21559;DHT22;10940;48.890;8.240;2023-12-14T09:29:29;8.60;99.90
21559;DHT22;10940;48.890;8.240;2023-12-14T09:31:55;8.70;99.90
21559;DHT22;10940;48.890;8.240;2023-12-14T09:34:20;8.70;99.90
21559;DHT22;10940;48.890;8.240;2023-12-14T09:36:46;8.80;99.90
21559;DHT22;10940;48.890;8.240;2023-12-14T09:39:11;8.90;99.90
21559;DHT22;10940;48.890;8.240;2023-12-14T09:41:37;8.90;99.90
21559;DHT22;10940;48.890;8.240;2023-12-14T09:44:04;8.90;99.90
21559;DHT22;10940;48.890;8.240;2023-12-14T09:46:31;8.90;99.90
21559;DHT22;10940;48.890;8.240;2023-12-14T09:49:00;8.90;99.90
21559;DHT22;10940;48.890;8.240;2023-12-14T09:51:26;8.90;99.90
21559;DHT22;10940;48.890;8.240;2023-12-14T09:53:52;8.90;99.90
21559;DHT22;10940;48.890;8.240;2023-12-14T09:56:26;8.90;99.90
21559;DHT22;10940;48.890;8.240;2023-12-14T09:58:52;8.90;99.90
21559;DHT22;10940;48.890;8.240;2023-12-14T10:01:25;8.80;99.90
21559;DHT22;10940;48.890;8.240;2023-12-14T10:04:10;8.80;99.90
21559;DHT22;10940;48.890;8.240;2023-12-14T10:06:37;8.80;99.90
21559;DHT22;10940;48.890;8.240;2023-12-14T10:09:03;8.80;99.90
21559;DHT22;10940;48.890;8.240;2023-12-14T10:11:30;8.90;99.90
21559;DHT22;10940;48.890;8.240;2023-12-14T10:13:55;8.90;99.90
21559;DHT22;10940;48.890;8.240;2023-12-14T10:16:32;8.90;99.90
21559;DHT22;10940;48.890;8.240;2023-12-14T10:18:59;8.90;99.90
21559;DHT22;10940;48.890;8.240;2023-12-14T10:21:26;8.90;99.90
21559;DHT22;10940;48.890;8.240;2023-12-14T10:23:54;9.00;99.90
21559;DHT22;10940;48.890;8.240;2023-12-14T10:26:25;9.00;99.90
21559;DHT22;10940;48.890;8.240;2023-12-14T10:28:54;9.00;99.90
21559;DHT22;10940;48.890;8.240;2023-12-14T10:31:20;9.00;99.90
21559;DHT22;10940;48.890;8.240;2023-12-14T10:33:46;9.10;99.90
21559;DHT22;10940;48.890;8.240;2023-12-14T10:36:18;9.10;99.90
21559;DHT22;10940;48.890;8.240;2023-12-14T10:38:47;9.20;99.90
21559;DHT22;10940;48.890;8.240;2023-12-14T10:41:13;9.20;99.90
21559;DHT22;10940;48.890;8.240;2023-12-14T10:43:41;9.20;99.90
21559;DHT22;10940;48.890;8.240;2023-12-14T10:46:07;9.30;99.90
21559;DHT22;10940;48.890;8.240;2023-12-14T10:48:35;9.30;99.90
21559;DHT22;10940;48.890;8.240;2023-12-14T10:51:02;9.40;99.90
21559;DHT22;10940;48.890;8.240;2023-12-14T10:53:28;9.40;99.90
21559;DHT22;10940;48.890;8.240;2023-12-14T10:55:56;9.40;99.90
21559;DHT22;10940;48.890;8.240;2023-12-14T10:58:23;9.40;99.90
21559;DHT22;10940;48.890;8.240;2023-12-14T11:01:01;9.40;99.90
21559;DHT22;10940;48.890;8.240;2023-12-14T11:03:31;9.40;99.90
21559;DHT22;10940;48.890;8.240;2023-12-14T11:05:57;9.40;99.90
21559;DHT22;10940;48.890;8.240;2023-12-14T11:08:25;9.40;99.90
21559;DHT22;10940;48.890;8.240;2023-12-14T11:11:03;9.40;99.90
21559;DHT22;10940;48.890;8.240;2023-12-14T11:13:35;9.40;99.90
21559;DHT22;10940;48.890;8.240;2023-12-14T11:16:04;9.40;99.90
21559;DHT22;10940;48.890;8.240;2023-12-14T11:18:29;9.40;99.90
21559;DHT22;10940;48.890;8.240;2023-12-14T11:21:00;9.40;99.90
21559;DHT22;10940;48.890;8.240;2023-12-14T11:26:06;9.40;99.90
21559;DHT22;10940;48.890;8.240;2023-12-14T11:28:34;9.40;99.90
21559;DHT22;10940;48.890;8.240;2023-12-14T11:31:01;9.40;99.90
21559;DHT22;10940;48.890;8.240;2023-12-14T11:33:27;9.40;99.90
21559;DHT22;10940;48.890;8.240;2023-12-14T11:35:54;9.40;99.90
21559;DHT22;10940;48.890;8.240;2023-12-14T11:38:20;9.40;99.90
21559;DHT22;10940;48.890;8.240;2023-12-14T11:40:47;9.40;99.90
21559;DHT22;10940;48.890;8.240;2023-12-14T11:43:16;9.40;99.90
21559;DHT22;10940;48.890;8.240;2023-12-14T11:45:42;9.40;99.90
21559;DHT22;10940;48.890;8.240;2023-12-14T11:48:09;9.40;99.90
21559;DHT22;10940;48.890;8.240;2023-12-14T11:50:40;9.40;99.90
21559;DHT22;10940;48.890;8.240;2023-12-14T11:53:07;9.40;99.90
21559;DHT22;10940;48.890;8.240;2023-12-14T11:55:35;9.50;99.90
21559;DHT22;10940;48.890;8.240;2023-12-14T11:58:01;9.50;99.90
21559;DHT22;10940;48.890;8.240;2023-12-14T12:00:30;9.50;99.90
21559;DHT22;10940;48.890;8.240;2023-12-14T12:05:45;9.50;99.90
21559;DHT22;10940;48.890;8.240;2023-12-14T12:08:12;9.60;99.90
21559;DHT22;10940;48.890;8.240;2023-12-14T12:10:39;9.60;99.90
21559;DHT22;10940;48.890;8.240;2023-12-14T12:13:14;9.60;99.90
21559;DHT22;10940;48.890;8.240;2023-12-14T12:15:40;9.70;99.90
21559;DHT22;10940;48.890;8.240;2023-12-14T12:18:07;9.60;99.90
21559;DHT22;10940;48.890;8.240;2023-12-14T12:20:33;9.60;99.90
21559;DHT22;10940;48.890;8.240;2023-12-14T12:23:00;9.60;99.90
21559;DHT22;10940;48.890;8.240;2023-12-14T12:25:26;9.60;99.90
21559;DHT22;10940;48.890;8.240;2023-12-14T12:27:54;9.50;99.90
21559;DHT22;10940;48.890;8.240;2023-12-14T12:30:20;9.60;99.90
21559;DHT22;10940;48.890;8.240;2023-12-14T12:32:45;9.60;99.90
21559;DHT22;10940;48.890;8.240;2023-12-14T12:35:11;9.50;99.90
21559;DHT22;10940;48.890;8.240;2023-12-14T12:37:36;9.50;99.90
21559;DHT22;10940;48.890;8.240;2023-12-14T12:40:02;9.50;99.90
21559;DHT22;10940;48.890;8.240;2023-12-14T12:42:28;9.50;99.90
21559;DHT22;10940;48.890;8.240;2023-12-14T12:44:54;9.50;99.90
21559;DHT22;10940;48.890;8.240;2023-12-14T12:47:20;9.50;99.90
21559;DHT22;10940;48.890;8.240;2023-12-14T12:49:45;9.40;99.90
21559;DHT22;10940;48.890;8.240;2023-12-14T12:52:11;9.50;99.90
21559;DHT22;10940;48.890;8.240;2023-12-14T12:54:37;9.50;99.90
21559;DHT22;10940;48.890;8.240;2023-12-14T12:57:03;9.50;99.90
21559;DHT22;10940;48.890;8.240;2023-12-14T12:59:28;9.50;99.90
21559;DHT22;10940;48.890;8.240;2023-12-14T13:01:54;9.60;99.90
21559;DHT22;10940;48.890;8.240;2023-12-14T13:04:23;9.50;99.90
21559;DHT22;10940;48.890;8.240;2023-12-14T13:06:49;9.50;99.90
21559;DHT22;10940;48.890;8.240;2023-12-14T13:09:19;9.60;99.90
21559;DHT22;10940;48.890;8.240;2023-12-14T13:11:46;9.50;99.90
21559;DHT22;10940;48.890;8.240;2023-12-14T13:14:11;9.60;99.90
21559;DHT22;10940;48.890;8.240;2023-12-14T13:16:38;9.60;99.90
21559;DHT22;10940;48.890;8.240;2023-12-14T13:19:04;9.60;99.90
21559;DHT22;10940;48.890;8.240;2023-12-14T13:21:32;9.60;99.90
21559;DHT22;10940;48.890;8.240;2023-12-14T13:23:59;9.60;99.90
21559;DHT22;10940;48.890;8.240;2023-12-14T13:26:25;9.70;99.90
21559;DHT22;10940;48.890;8.240;2023-12-14T13:28:53;9.70;99.90
21559;DHT22;10940;48.890;8.240;2023-12-14T13:31:19;9.70;99.90
21559;DHT22;10940;48.890;8.240;2023-12-14T13:33:48;9.80;99.90
21559;DHT22;10940;48.890;8.240;2023-12-14T13:36:14;9.80;99.90
21559;DHT22;10940;48.890;8.240;2023-12-14T13:38:41;9.70;99.90
21559;DHT22;10940;48.890;8.240;2023-12-14T13:41:07;9.70;99.90
21559;DHT22;10940;48.890;8.240;2023-12-14T13:43:33;9.70;99.90
21559;DHT22;10940;48.890;8.240;2023-12-14T13:45:59;9.70;99.90
21559;DHT22;10940;48.890;8.240;2023-12-14T13:48:25;9.60;99.90
21559;DHT22;10940;48.890;8.240;2023-12-14T13:50:51;9.60;99.90
21559;DHT22;10940;48.890;8.240;2023-12-14T13:53:17;9.60;99.90
21559;DHT22;10940;48.890;8.240;2023-12-14T13:55:43;9.50;99.90
21559;DHT22;10940;48.890;8.240;2023-12-14T13:58:08;9.60;99.90
21559;DHT22;10940;48.890;8.240;2023-12-14T14:00:34;9.60;99.90
21559;DHT22;10940;48.890;8.240;2023-12-14T14:03:00;9.50;99.90
21559;DHT22;10940;48.890;8.240;2023-12-14T14:05:27;9.50;99.90
21559;DHT22;10940;48.890;8.240;2023-12-14T14:07:53;9.50;99.90
21559;DHT22;10940;48.890;8.240;2023-12-14T14:10:19;9.50;99.90
21559;DHT22;10940;48.890;8.240;2023-12-14T14:12:45;9.50;99.90
21559;DHT22;10940;48.890;8.240;2023-12-14T14:15:12;9.50;99.90
21559;DHT22;10940;48.890;8.240;2023-12-14T14:17:37;9.40;99.90
21559;DHT22;10940;48.890;8.240;2023-12-14T14:20:04;9.40;99.90
21559;DHT22;10940;48.890;8.240;2023-12-14T14:22:30;9.40;99.90
21559;DHT22;10940;48.890;8.240;2023-12-14T14:24:56;9.40;99.90
21559;DHT22;10940;48.890;8.240;2023-12-14T14:27:22;9.40;99.90
21559;DHT22;10940;48.890;8.240;2023-12-14T14:29:49;9.40;99.90
21559;DHT22;10940;48.890;8.240;2023-12-14T14:32:14;9.30;99.90
21559;DHT22;10940;48.890;8.240;2023-12-14T14:34:40;9.30;99.90
21559;DHT22;10940;48.890;8.240;2023-12-14T14:37:06;9.40;99.90
21559;DHT22;10940;48.890;8.240;2023-12-14T14:39:31;9.30;99.90
21559;DHT22;10940;48.890;8.240;2023-12-14T14:41:57;9.40;99.90
21559;DHT22;10940;48.890;8.240;2023-12-14T14:44:24;9.40;99.90
21559;DHT22;10940;48.890;8.240;2023-12-14T14:46:51;9.30;99.90
21559;DHT22;10940;48.890;8.240;2023-12-14T14:49:17;9.30;99.90
21559;DHT22;10940;48.890;8.240;2023-12-14T14:51:43;9.20;99.90
21559;DHT22;10940;48.890;8.240;2023-12-14T14:54:09;9.30;99.90
21559;DHT22;10940;48.890;8.240;2023-12-14T14:56:34;9.30;99.90
21559;DHT22;10940;48.890;8.240;2023-12-14T14:59:00;9.20;99.90
21559;DHT22;10940;48.890;8.240;2023-12-14T15:01:26;9.20;99.90
21559;DHT22;10940;48.890;8.240;2023-12-14T15:03:51;9.10;99.90
21559;DHT22;10940;48.890;8.240;2023-12-14T15:06:17;9.10;99.90
21559;DHT22;10940;48.890;8.240;2023-12-14T15:08:42;9.10;99.90
21559;DHT22;10940;48.890;8.240;2023-12-14T15:11:08;9.10;99.90
21559;DHT22;10940;48.890;8.240;2023-12-14T15:13:36;9.10;99.90
21559;DHT22;10940;48.890;8.240;2023-12-14T15:16:01;9.10;99.90
21559;DHT22;10940;48.890;8.240;2023-12-14T15:18:28;9.10;99.90
21559;DHT22;10940;48.890;8.240;2023-12-14T15:20:53;9.00;99.90
21559;DHT22;10940;48.890;8.240;2023-12-14T15:23:19;9.10;99.90
21559;DHT22;10940;48.890;8.240;2023-12-14T15:25:45;9.00;99.90
21559;DHT22;10940;48.890;8.240;2023-12-14T15:28:10;9.00;99.90
21559;DHT22;10940;48.890;8.240;2023-12-14T15:30:36;9.00;99.90
21559;DHT22;10940;48.890;8.240;2023-12-14T15:33:02;9.00;99.90
21559;DHT22;10940;48.890;8.240;2023-12-14T15:35:28;9.00;99.90
21559;DHT22;10940;48.890;8.240;2023-12-14T15:37:53;9.00;99.90
21559;DHT22;10940;48.890;8.240;2023-12-14T15:40:19;9.00;99.90
21559;DHT22;10940;48.890;8.240;2023-12-14T15:42:45;8.90;99.90
21559;DHT22;10940;48.890;8.240;2023-12-14T15:45:10;9.00;99.90
21559;DHT22;10940;48.890;8.240;2023-12-14T15:47:36;8.90;99.90